createdAt,value
2022-07-29T00:01:19.093Z,51.40
2022-07-29T00:03:48.522Z,51.42
2022-07-29T00:06:16.695Z,52.04
2022-07-29T00:08:43.685Z,52.04
2022-07-29T00:11:10.686Z,52.33
2022-07-29T00:13:37.703Z,52.52
2022-07-29T00:16:05.358Z,53.05
2022-07-29T00:18:34.111Z,53.44
2022-07-29T00:21:01.200Z,53.61
2022-07-29T00:23:29.231Z,53.96
2022-07-29T00:25:57.718Z,54.19
2022-07-29T00:28:24.681Z,54.71
2022-07-29T00:30:51.745Z,54.46
2022-07-29T00:33:18.844Z,54.79
2022-07-29T00:35:45.832Z,54.92
2022-07-29T00:38:15.567Z,55.14
2022-07-29T00:40:44.849Z,55.49
2022-07-29T00:43:14.749Z,55.58
2022-07-29T00:45:43.250Z,55.59
2022-07-29T00:48:10.568Z,55.73
2022-07-29T00:50:39.247Z,56.09
2022-07-29T00:53:08.925Z,56.11
2022-07-29T00:55:37.433Z,56.45
2022-07-29T00:58:04.802Z,56.52
2022-07-29T01:00:32.159Z,56.77
2022-07-29T01:03:00.798Z,56.50
2022-07-29T01:05:50.117Z,56.38
2022-07-29T01:08:18.177Z,56.87
2022-07-29T01:10:46.616Z,56.97
2022-07-29T01:13:15.178Z,56.76
2022-07-29T01:15:55.504Z,57.20
2022-07-29T01:18:37.062Z,56.44
2022-07-29T01:21:49.132Z,56.75
2022-07-29T01:24:46.197Z,57.10
2022-07-29T01:28:03.988Z,57.84
2022-07-29T01:30:35.868Z,58.20
2022-07-29T01:33:11.957Z,58.06
2022-07-29T01:35:44.750Z,58.69
2022-07-29T01:38:27.007Z,58.96
2022-07-29T01:41:06.653Z,59.40
2022-07-29T01:43:58.425Z,59.73
2022-07-29T01:46:38.075Z,62.47
2022-07-29T01:49:26.872Z,65.40
2022-07-29T01:52:12.078Z,66.07
2022-07-29T01:54:46.988Z,67.35
2022-07-29T01:57:20.756Z,66.63
2022-07-29T01:59:49.571Z,66.04
2022-07-29T02:02:19.264Z,66.91
2022-07-29T02:04:50.618Z,66.17
2022-07-29T02:07:22.726Z,66.80
2022-07-29T02:09:52.516Z,66.42
2022-07-29T02:12:20.597Z,67.13
2022-07-29T02:14:54.445Z,66.77
2022-07-29T02:17:32.120Z,66.57
2022-07-29T02:20:05.059Z,66.66
2022-07-29T02:22:37.950Z,66.86
2022-07-29T02:25:13.900Z,66.69
2022-07-29T02:27:42.466Z,66.02
2022-07-29T02:30:11.919Z,66.47
2022-07-29T02:32:42.608Z,66.68
2022-07-29T02:35:13.593Z,66.19
2022-07-29T02:37:43.223Z,66.90
2022-07-29T02:40:15.002Z,66.95
2022-07-29T02:42:45.117Z,67.05
2022-07-29T02:45:12.293Z,67.85
2022-07-29T02:47:48.732Z,67.22
2022-07-29T02:50:28.410Z,67.39
2022-07-29T02:53:08.269Z,67.14
2022-07-29T02:55:52.581Z,68.39
2022-07-29T02:59:08.645Z,68.17
2022-07-29T03:01:39.912Z,68.59
2022-07-29T03:04:09.102Z,68.03
2022-07-29T03:06:39.051Z,68.68
2022-07-29T03:09:12.857Z,68.22
2022-07-29T03:11:49.106Z,68.12
2022-07-29T03:14:21.942Z,67.94
2022-07-29T03:16:51.664Z,68.20
2022-07-29T03:19:21.136Z,67.62
2022-07-29T03:21:48.814Z,67.78
2022-07-29T03:24:38.406Z,67.16
2022-07-29T03:27:06.487Z,67.94
2022-07-29T03:29:34.618Z,67.62
2022-07-29T03:32:08.389Z,67.75
2022-07-29T03:34:38.698Z,67.92
2022-07-29T03:37:08.421Z,67.61
2022-07-29T03:39:42.005Z,67.76
2022-07-29T03:42:13.074Z,67.70
2022-07-29T03:44:42.948Z,67.46
2022-07-29T03:47:14.340Z,67.07
2022-07-29T03:49:42.072Z,67.43
2022-07-29T03:52:09.899Z,67.43
2022-07-29T03:54:37.048Z,67.88
2022-07-29T03:57:06.732Z,67.73
2022-07-29T03:59:35.036Z,67.68
2022-07-29T04:02:06.503Z,67.45
2022-07-29T04:04:37.694Z,67.48
2022-07-29T04:07:05.790Z,67.68
2022-07-29T04:09:32.899Z,67.28
2022-07-29T04:12:03.185Z,68.17
2022-07-29T04:14:33.993Z,67.46
2022-07-29T04:17:03.479Z,67.07
2022-07-29T04:19:30.993Z,67.12
2022-07-29T04:22:00.797Z,67.68
2022-07-29T04:24:28.614Z,67.15
2022-07-29T04:26:55.722Z,67.69
2022-07-29T04:29:22.824Z,67.48
2022-07-29T04:31:49.832Z,67.79
2022-07-29T04:34:17.391Z,68.05
2022-07-29T04:36:44.667Z,67.93
2022-07-29T04:39:12.049Z,67.42
2022-07-29T04:41:39.072Z,67.79
2022-07-29T04:44:07.162Z,68.13
2022-07-29T04:46:36.541Z,67.43
2022-07-29T04:49:04.565Z,67.52
2022-07-29T04:51:32.835Z,67.33
2022-07-29T04:53:59.830Z,67.65
2022-07-29T04:56:26.897Z,67.77
2022-07-29T04:58:58.320Z,67.55
2022-07-29T05:01:25.384Z,67.91
2022-07-29T05:03:53.976Z,67.27
2022-07-29T05:06:24.130Z,67.27
2022-07-29T05:08:51.165Z,67.17
2022-07-29T05:11:21.282Z,66.88
2022-07-29T05:13:49.564Z,66.36
2022-07-29T05:16:16.601Z,66.23
2022-07-29T05:18:43.822Z,65.92
2022-07-29T05:21:10.859Z,66.24
2022-07-29T05:23:37.804Z,66.56
2022-07-29T05:26:04.947Z,65.23
2022-07-29T05:28:36.183Z,64.85
2022-07-29T05:31:03.602Z,65.20
2022-07-29T05:33:35.064Z,64.73
2022-07-29T05:36:08.023Z,64.53
2022-07-29T05:38:37.038Z,63.75
2022-07-29T05:41:06.174Z,62.27
2022-07-29T05:43:34.157Z,62.32
2022-07-29T05:46:01.347Z,61.62
2022-07-29T05:48:28.910Z,60.68
2022-07-29T05:50:57.241Z,61.21
2022-07-29T05:53:24.400Z,61.02
2022-07-29T05:55:52.133Z,60.48
2022-07-29T05:58:19.425Z,59.90
2022-07-29T06:00:46.748Z,60.12
2022-07-29T06:03:13.808Z,59.55
2022-07-29T06:05:40.923Z,59.10
2022-07-29T06:08:08.438Z,58.39
2022-07-29T06:10:38.672Z,58.87
2022-07-29T06:13:05.708Z,58.35
2022-07-29T06:15:33.158Z,58.60
2022-07-29T06:18:01.720Z,58.36
2022-07-29T06:20:32.026Z,58.60
2022-07-29T06:23:00.351Z,58.87
2022-07-29T06:25:33.338Z,58.53
2022-07-29T06:28:00.349Z,58.32
2022-07-29T06:30:27.651Z,57.62
2022-07-29T06:32:54.738Z,57.64
2022-07-29T06:35:39.437Z,57.42
2022-07-29T06:38:30.107Z,58.48
2022-07-29T06:41:23.094Z,56.79
2022-07-29T06:43:54.490Z,57.31
2022-07-29T06:46:23.685Z,56.75
2022-07-29T06:48:52.744Z,57.80
2022-07-29T06:51:22.359Z,56.44
2022-07-29T06:53:58.361Z,57.10
2022-07-29T06:56:29.254Z,55.94
2022-07-29T06:58:56.248Z,56.08
2022-07-29T07:01:24.145Z,57.09
2022-07-29T07:03:51.165Z,57.39
2022-07-29T07:06:18.157Z,58.96
2022-07-29T07:08:45.162Z,58.53
2022-07-29T07:11:12.356Z,59.01
2022-07-29T07:13:39.337Z,59.81
2022-07-29T07:16:06.530Z,60.12
2022-07-29T07:18:33.616Z,61.88
2022-07-29T07:21:00.660Z,61.17
2022-07-29T07:23:27.642Z,62.39
2022-07-29T07:25:54.694Z,60.51
2022-07-29T07:28:24.834Z,61.02
2022-07-29T07:30:52.810Z,60.51
2022-07-29T07:33:20.169Z,58.03
2022-07-29T07:35:47.781Z,61.28
2022-07-29T07:38:14.841Z,60.41
2022-07-29T07:40:42.480Z,60.36
2022-07-29T07:43:09.467Z,62.10
2022-07-29T07:45:38.348Z,60.83
2022-07-29T07:48:06.276Z,60.54
2022-07-29T07:50:33.324Z,61.94
2022-07-29T07:53:02.955Z,61.79
2022-07-29T07:55:42.442Z,61.55
2022-07-29T07:58:17.050Z,63.27
2022-07-29T08:00:44.350Z,63.67
2022-07-29T08:03:16.816Z,59.74
2022-07-29T08:05:45.891Z,60.33
2022-07-29T08:08:12.978Z,58.81
2022-07-29T08:10:56.685Z,60.28
2022-07-29T08:13:31.361Z,59.97
2022-07-29T08:16:01.081Z,59.51
2022-07-29T08:18:32.366Z,59.96
2022-07-29T08:20:59.903Z,60.29
2022-07-29T08:23:32.897Z,59.99
2022-07-29T08:26:14.605Z,58.29
2022-07-29T08:28:46.775Z,59.98
2022-07-29T08:31:15.282Z,58.67
2022-07-29T08:33:43.401Z,58.55
2022-07-29T08:36:10.749Z,58.11
2022-07-29T08:38:37.721Z,55.22
2022-07-29T08:41:04.768Z,58.00
2022-07-29T08:43:31.935Z,54.11
2022-07-29T08:45:59.210Z,54.38
2022-07-29T08:48:26.243Z,55.47
2022-07-29T08:50:58.621Z,51.10
2022-07-29T08:53:29.142Z,52.24
2022-07-29T08:55:57.125Z,53.10
2022-07-29T08:58:26.413Z,53.16
2022-07-29T09:00:58.007Z,53.57
2022-07-29T09:03:31.630Z,52.31
2022-07-29T09:06:00.720Z,53.78
2022-07-29T09:08:28.200Z,53.99
2022-07-29T09:10:59.361Z,52.94
2022-07-29T09:13:27.794Z,52.27
2022-07-29T09:15:54.978Z,49.40
2022-07-29T09:18:45.319Z,50.57
2022-07-29T09:21:37.693Z,49.86
2022-07-29T09:24:14.961Z,50.37
2022-07-29T09:26:46.213Z,47.92
2022-07-29T09:29:17.629Z,47.51
2022-07-29T09:31:49.396Z,48.92
2022-07-29T09:34:26.388Z,46.55
2022-07-29T09:36:56.079Z,46.32
2022-07-29T09:39:46.685Z,45.12
2022-07-29T09:42:16.044Z,47.27
2022-07-29T09:44:51.012Z,44.84
2022-07-29T09:47:22.759Z,43.21
2022-07-29T09:50:00.778Z,43.50
2022-07-29T09:52:30.036Z,45.12
2022-07-29T09:55:08.823Z,46.09
2022-07-29T09:57:35.904Z,43.64
2022-07-29T10:00:12.096Z,44.74
2022-07-29T10:02:42.182Z,44.90
2022-07-29T10:05:36.169Z,43.14
2022-07-29T10:08:04.312Z,44.56
2022-07-29T10:10:36.470Z,44.17
2022-07-29T10:13:15.060Z,44.36
2022-07-29T10:15:46.856Z,45.18
2022-07-29T10:18:18.118Z,45.55
2022-07-29T10:20:45.524Z,43.82
2022-07-29T10:23:13.679Z,44.74
2022-07-29T10:25:45.954Z,45.44
2022-07-29T10:28:16.437Z,46.40
2022-07-29T10:30:45.497Z,46.32
2022-07-29T10:33:42.226Z,46.50
2022-07-29T10:36:28.553Z,46.16
2022-07-29T10:39:12.821Z,47.63
2022-07-29T10:42:10.456Z,47.69
2022-07-29T10:44:44.317Z,46.80
2022-07-29T10:47:40.850Z,46.38
2022-07-29T10:50:11.698Z,40.33
2022-07-29T10:52:51.013Z,41.22
2022-07-29T10:55:43.077Z,42.38
2022-07-29T10:58:19.442Z,41.53
2022-07-29T11:00:52.604Z,41.05
2022-07-29T11:03:52.125Z,39.37
2022-07-29T11:06:26.534Z,40.41
2022-07-29T11:09:25.716Z,39.62
2022-07-29T11:15:03.594Z,40.86
2022-07-29T11:17:52.310Z,39.56
2022-07-29T11:20:50.040Z,39.33
2022-07-29T11:23:36.718Z,39.20
2022-07-29T11:26:23.033Z,39.80
2022-07-29T11:29:04.476Z,39.20
2022-07-29T11:31:43.115Z,39.98
2022-07-29T11:34:33.424Z,38.46
2022-07-29T11:37:10.819Z,37.16
2022-07-29T11:40:01.993Z,37.43
2022-07-29T11:42:33.048Z,36.44
2022-07-29T11:45:42.048Z,37.30
2022-07-29T11:48:29.266Z,37.85
2022-07-29T11:50:49.201Z,38.91
2022-07-29T11:53:17.221Z,39.30
2022-07-29T11:55:50.783Z,39.26
2022-07-29T11:58:27.927Z,40.42
2022-07-29T12:00:56.296Z,41.85
2022-07-29T12:03:32.753Z,42.25
2022-07-29T12:06:00.776Z,42.79
2022-07-29T12:08:28.763Z,42.73
2022-07-29T12:10:55.972Z,42.55
2022-07-29T12:13:37.055Z,42.88
2022-07-29T12:16:05.058Z,42.92
2022-07-29T12:18:32.718Z,42.86
2022-07-29T12:21:04.886Z,43.03
2022-07-29T12:23:34.824Z,43.59
2022-07-29T12:26:10.866Z,43.06
2022-07-29T12:28:39.833Z,43.72
2022-07-29T12:31:13.724Z,44.50
2022-07-29T12:33:40.992Z,45.25
2022-07-29T12:36:15.642Z,45.46
2022-07-29T12:38:45.564Z,45.32
2022-07-29T12:41:13.925Z,45.10
2022-07-29T12:43:56.542Z,45.38
2022-07-29T12:46:24.185Z,45.24
2022-07-29T12:48:58.339Z,44.22
2022-07-29T12:51:41.746Z,44.22
2022-07-29T12:54:15.439Z,45.41
2022-07-29T12:56:45.858Z,44.24
2022-07-29T12:59:23.546Z,44.86
2022-07-29T13:01:53.262Z,45.28
2022-07-29T13:04:33.263Z,45.16
2022-07-29T13:07:08.245Z,44.39
2022-07-29T13:09:46.590Z,44.10
2022-07-29T13:12:16.008Z,44.22
2022-07-29T13:14:47.532Z,43.62
2022-07-29T13:17:24.064Z,43.60
2022-07-29T13:20:05.931Z,43.15
2022-07-29T13:22:36.814Z,43.72
2022-07-29T13:25:04.595Z,43.78
2022-07-29T13:27:37.413Z,43.49
2022-07-29T13:30:09.161Z,44.25
2022-07-29T13:32:37.409Z,44.52
2022-07-29T13:35:09.458Z,43.93
2022-07-29T13:37:39.483Z,44.03
2022-07-29T13:40:12.023Z,43.86
2022-07-29T13:42:41.223Z,43.67
2022-07-29T13:45:11.623Z,42.95
2022-07-29T13:47:38.674Z,43.20
2022-07-29T13:50:08.171Z,42.91
2022-07-29T13:52:35.693Z,42.31
2022-07-29T13:55:03.748Z,42.67
2022-07-29T13:57:30.913Z,43.19
2022-07-29T13:59:58.387Z,42.34
2022-07-29T14:02:26.316Z,41.61
2022-07-29T14:04:55.941Z,41.84
2022-07-29T14:07:23.961Z,42.00
2022-07-29T14:09:52.677Z,42.42
2022-07-29T14:12:20.110Z,42.35
2022-07-29T14:14:47.317Z,41.68
2022-07-29T14:17:15.155Z,41.11
2022-07-29T14:19:42.923Z,42.10
2022-07-29T14:22:10.899Z,41.61
2022-07-29T14:24:38.855Z,41.67
2022-07-29T14:27:08.250Z,41.81
2022-07-29T14:29:38.025Z,41.02
2022-07-29T14:32:11.416Z,41.55
2022-07-29T14:34:39.220Z,42.09
2022-07-29T14:37:07.561Z,41.29
2022-07-29T14:39:42.588Z,40.59
2022-07-29T14:42:12.714Z,40.35
2022-07-29T14:44:42.411Z,40.48
2022-07-29T14:47:09.993Z,41.45
2022-07-29T14:49:37.738Z,40.72
2022-07-29T14:52:05.693Z,41.87
2022-07-29T14:54:32.657Z,41.38
2022-07-29T14:56:59.777Z,40.94
2022-07-29T14:59:27.530Z,41.20
2022-07-29T15:01:54.874Z,40.60
2022-07-29T15:04:21.980Z,40.61
2022-07-29T15:06:49.657Z,38.68
2022-07-29T15:09:16.710Z,39.62
2022-07-29T15:11:43.840Z,40.58
2022-07-29T15:14:10.873Z,39.36
2022-07-29T15:16:43.848Z,39.07
2022-07-29T15:19:14.143Z,38.75
2022-07-29T15:21:48.787Z,39.40
2022-07-29T15:24:23.345Z,39.70
2022-07-29T15:26:50.338Z,38.61
2022-07-29T15:29:17.655Z,38.88
2022-07-29T15:31:45.133Z,37.92
2022-07-29T15:34:12.280Z,37.57
2022-07-29T15:36:51.991Z,37.52
2022-07-29T15:39:22.265Z,37.08
2022-07-29T15:41:50.428Z,36.99
2022-07-29T15:44:18.123Z,36.33
2022-07-29T15:47:03.699Z,35.86
2022-07-29T15:49:47.787Z,35.56
2022-07-29T15:52:26.202Z,34.69
2022-07-29T15:54:55.705Z,34.04
2022-07-29T15:57:24.726Z,33.70
2022-07-29T15:59:52.108Z,35.53
2022-07-29T16:02:19.496Z,35.85
2022-07-29T16:04:47.233Z,35.27
2022-07-29T16:07:14.881Z,34.56
2022-07-29T16:09:43.692Z,35.79
2022-07-29T16:12:15.294Z,35.60
2022-07-29T16:14:44.352Z,33.73
2022-07-29T16:17:14.901Z,35.11
2022-07-29T16:19:45.637Z,34.70
2022-07-29T16:22:13.725Z,34.34
2022-07-29T16:24:41.722Z,31.77
2022-07-29T16:27:08.965Z,32.42
2022-07-29T16:29:37.107Z,31.58
2022-07-29T16:32:06.457Z,31.34
2022-07-29T16:34:33.747Z,32.64
2022-07-29T16:37:01.052Z,31.93
2022-07-29T16:39:28.221Z,31.22
2022-07-29T16:41:59.832Z,32.72
2022-07-29T16:44:27.530Z,32.60
2022-07-29T16:46:56.143Z,33.18
2022-07-29T16:49:27.122Z,32.61
2022-07-29T16:51:54.266Z,32.49
2022-07-29T16:54:21.294Z,31.73
2022-07-29T16:56:48.396Z,32.86
2022-07-29T16:59:15.351Z,32.57
2022-07-29T17:01:42.397Z,32.31
2022-07-29T17:04:09.646Z,32.94
2022-07-29T17:06:40.637Z,33.12
2022-07-29T17:09:10.595Z,31.28
2022-07-29T17:11:54.017Z,31.85
2022-07-29T17:14:29.394Z,32.02
2022-07-29T17:17:01.983Z,32.77
2022-07-29T17:19:35.631Z,33.15
2022-07-29T17:22:11.745Z,33.28
2022-07-29T17:24:41.081Z,33.11
2022-07-29T17:27:10.043Z,32.52
2022-07-29T17:29:38.875Z,32.67
2022-07-29T17:32:07.979Z,32.25
2022-07-29T17:34:40.918Z,32.68
2022-07-29T17:37:11.504Z,32.31
2022-07-29T17:39:41.998Z,32.92
2022-07-29T17:42:11.953Z,33.70
2022-07-29T17:44:39.481Z,33.55
2022-07-29T17:47:16.138Z,33.49
2022-07-29T17:49:45.490Z,33.68
2022-07-29T17:52:12.544Z,33.14
2022-07-29T17:54:39.523Z,33.07
2022-07-29T17:57:08.367Z,34.08
2022-07-29T17:59:35.331Z,33.34
2022-07-29T18:02:02.348Z,33.48
2022-07-29T18:04:31.336Z,34.41
2022-07-29T18:06:58.556Z,33.56
2022-07-29T18:09:25.660Z,34.51
2022-07-29T18:11:52.732Z,33.69
2022-07-29T18:14:19.808Z,33.38
2022-07-29T18:16:47.041Z,34.38
2022-07-29T18:19:14.280Z,33.55
2022-07-29T18:21:51.406Z,34.45
2022-07-29T18:24:28.256Z,33.80
2022-07-29T18:26:55.508Z,34.13
2022-07-29T18:29:22.587Z,34.05
2022-07-29T18:31:50.104Z,34.88
2022-07-29T18:34:17.228Z,35.16
2022-07-29T18:36:45.712Z,35.08
2022-07-29T18:39:18.852Z,35.02
2022-07-29T18:41:52.004Z,34.55
2022-07-29T18:44:21.967Z,35.47
2022-07-29T18:46:52.097Z,35.02
2022-07-29T18:49:19.553Z,35.50
2022-07-29T18:51:46.838Z,35.50
2022-07-29T18:54:13.932Z,35.89
2022-07-29T18:56:41.157Z,35.34
2022-07-29T18:59:08.252Z,35.61
2022-07-29T19:01:35.617Z,34.95
2022-07-29T19:04:02.799Z,35.87
2022-07-29T19:06:30.455Z,35.70
2022-07-29T19:08:57.475Z,35.46
2022-07-29T19:11:24.609Z,35.63
2022-07-29T19:13:51.764Z,35.53
2022-07-29T19:16:18.978Z,35.05
2022-07-29T19:18:47.395Z,36.43
2022-07-29T19:21:14.390Z,36.22
2022-07-29T19:24:01.671Z,35.63
2022-07-29T19:26:30.487Z,35.37
2022-07-29T19:28:57.515Z,35.48
2022-07-29T19:31:24.584Z,35.83
2022-07-29T19:33:52.072Z,36.04
2022-07-29T19:36:19.198Z,36.14
2022-07-29T19:38:50.885Z,36.08
2022-07-29T19:41:17.895Z,36.08
2022-07-29T19:43:51.396Z,36.17
2022-07-29T19:46:22.153Z,36.16
2022-07-29T19:48:50.508Z,36.32
2022-07-29T19:51:17.769Z,37.05
2022-07-29T19:53:44.763Z,36.86
2022-07-29T19:56:11.872Z,36.39
2022-07-29T19:58:40.569Z,37.12
2022-07-29T20:01:10.471Z,37.13
2022-07-29T20:03:40.183Z,36.26
2022-07-29T20:06:07.776Z,36.29
2022-07-29T20:08:34.946Z,36.88
2022-07-29T20:11:02.739Z,36.93
2022-07-29T20:13:31.744Z,35.61
2022-07-29T20:16:00.055Z,35.99
2022-07-29T20:18:27.347Z,36.18
2022-07-29T20:20:57.482Z,36.66
2022-07-29T20:23:24.559Z,37.40
2022-07-29T20:25:51.627Z,38.46
2022-07-29T20:28:19.760Z,40.74
2022-07-29T20:30:47.495Z,41.60
2022-07-29T20:33:15.064Z,42.87
2022-07-29T20:35:43.460Z,42.99
2022-07-29T20:38:12.920Z,44.31
2022-07-29T20:40:42.170Z,44.53
2022-07-29T20:43:09.273Z,45.22
2022-07-29T20:45:37.657Z,45.67
2022-07-29T20:48:05.809Z,45.43
2022-07-29T20:50:36.284Z,45.34
2022-07-29T20:53:03.620Z,45.01
2022-07-29T20:55:32.022Z,45.28
2022-07-29T20:57:59.135Z,45.27
2022-07-29T21:00:26.269Z,45.62
2022-07-29T21:02:53.241Z,46.22
2022-07-29T21:05:20.599Z,48.25
2022-07-29T21:07:47.693Z,48.69
2022-07-29T21:10:15.008Z,49.21
2022-07-29T21:12:42.009Z,49.95
2022-07-29T21:15:13.351Z,50.41
2022-07-29T21:17:46.512Z,51.08
2022-07-29T21:20:19.175Z,51.01
2022-07-29T21:22:48.720Z,51.12
2022-07-29T21:25:15.859Z,51.00
2022-07-29T21:28:01.567Z,51.18
2022-07-29T21:30:28.732Z,51.27
2022-07-29T21:32:55.834Z,51.76
2022-07-29T21:36:06.252Z,51.61
2022-07-29T21:38:10.947Z,51.78
2022-07-29T21:40:38.977Z,53.17
2022-07-29T21:43:06.058Z,53.08
2022-07-29T21:45:33.076Z,53.46
2022-07-29T21:48:01.276Z,53.42
2022-07-29T21:50:28.229Z,53.69
2022-07-29T21:52:55.365Z,54.24
2022-07-29T21:55:22.776Z,54.31
2022-07-29T21:57:54.356Z,54.59
2022-07-29T22:00:25.483Z,55.10
2022-07-29T22:02:53.643Z,55.12
2022-07-29T22:05:20.977Z,55.81
2022-07-29T22:07:54.430Z,55.66
2022-07-29T22:10:24.168Z,55.72
2022-07-29T22:12:56.616Z,56.22
2022-07-29T22:15:26.073Z,56.77
2022-07-29T22:17:53.152Z,56.16
2022-07-29T22:20:20.980Z,56.13
2022-07-29T22:22:51.333Z,56.82
2022-07-29T22:25:18.435Z,56.93
2022-07-29T22:27:45.827Z,57.14
2022-07-29T22:30:13.681Z,57.02
2022-07-29T22:32:41.122Z,57.49
2022-07-29T22:35:08.236Z,58.06
2022-07-29T22:37:35.230Z,58.22
2022-07-29T22:40:02.597Z,58.43
2022-07-29T22:42:29.582Z,58.72
2022-07-29T22:44:56.685Z,58.41
2022-07-29T22:47:46.679Z,58.23
2022-07-29T22:50:10.643Z,58.65
2022-07-29T22:52:37.644Z,58.80
2022-07-29T22:55:05.899Z,59.30
2022-07-29T22:57:33.894Z,59.54
2022-07-29T23:00:02.312Z,59.34
2022-07-29T23:02:29.378Z,60.07
2022-07-29T23:04:56.756Z,60.55
2022-07-29T23:07:24.264Z,60.38
2022-07-29T23:09:51.229Z,59.99
2022-07-29T23:12:18.185Z,59.98
2022-07-29T23:14:45.181Z,60.03
2022-07-29T23:17:12.188Z,60.09
2022-07-29T23:19:39.185Z,60.57
2022-07-29T23:22:06.232Z,60.73
2022-07-29T23:24:33.270Z,60.77
2022-07-29T23:27:00.451Z,60.94
2022-07-29T23:29:27.515Z,60.89
2022-07-29T23:31:54.516Z,60.50
2022-07-29T23:34:21.480Z,60.44
2022-07-29T23:36:48.433Z,60.21
2022-07-29T23:39:15.518Z,59.85
2022-07-29T23:41:43.816Z,60.33
2022-07-29T23:44:10.774Z,60.01
2022-07-29T23:46:37.854Z,59.93
2022-07-29T23:49:05.095Z,59.26
2022-07-29T23:51:32.732Z,56.75
2022-07-29T23:53:59.971Z,54.41
2022-07-29T23:56:27.019Z,53.88
2022-07-29T23:58:54.483Z,53.72
